Terminal Aerodrome Forecast
Issued by NWS

Home | Current Version | Previous Version | Text Only | Print | Product List | Glossary On
Versions: 1 2 3 4 5 6 7 8 9 10 11 12 13 14 15 16 17 18 19
000
FTUS44 KTSA 011300 AAA
TAFBVO
TAF AMD
KBVO 011305Z 0113/0212 00000KT 5SM BR OVC009
      TEMPO 0113/0115 3SM BR BKN003 OVC009
     FM011500 00000KT P6SM BKN025
     FM011700 14005KT P6SM SCT250
     FM020100 00000KT P6SM SCT250
     FM020900 00000KT 4SM BR SKC=

USA.gov is the U.S. government's official web portal to all federal, state and local government web resources and services.